Time;durP1;ratioP1;P1;durP2;ratioP2;P2;SDS_P1;SDS_P2;PMS_P1;PMS_P2;Temp;Humidity;BMP_temperature;BMP_pressure;BME280_temperature;BME280_humidity;BME280_pressure;Samples;Min_cycle;Max_cycle;Signal;HPM_P1;HPM_P2
2023/04/06 00:04:34;;;;;;;24.03;21.33;;;1.00;99.90;;;;;;2612007;54;20131;-76
2023/04/06 00:10:22;;;;;;;23.63;21.30;;;0.90;99.90;;;;;;2610973;54;20377;-75
2023/04/06 00:16:10;;;;;;;26.20;21.50;;;1.00;99.90;;;;;;2611530;54;20130;-73
2023/04/06 00:21:58;;;;;;;23.57;21.23;;;0.90;99.90;;;;;;2611017;54;20158;-75
2023/04/06 00:34:30;;;;;;;22.60;20.27;;;0.90;99.90;;;;;;2614791;54;20405;-74
2023/04/06 00:40:18;;;;;;;23.50;21.20;;;0.80;99.90;;;;;;2611344;54;20182;-74
2023/04/06 00:46:05;;;;;;;22.80;20.60;;;0.60;99.90;;;;;;2609591;54;20386;-75
2023/04/06 00:51:53;;;;;;;23.30;20.80;;;0.60;99.90;;;;;;2611678;39;20955;-75
2023/04/06 00:57:41;;;;;;;22.93;20.80;;;0.70;99.90;;;;;;2611369;31;20642;-74
2023/04/06 01:03:28;;;;;;;21.67;19.47;;;0.60;99.90;;;;;;2609892;54;20134;-74
2023/04/06 01:09:17;;;;;;;23.23;20.63;;;0.50;99.90;;;;;;2609053;54;20138;-75
2023/04/06 01:15:06;;;;;;;22.00;19.80;;;0.40;99.90;;;;;;2610391;54;20478;-75
2023/04/06 01:20:53;;;;;;;21.77;19.47;;;0.30;99.90;;;;;;2610993;54;21021;-74
2023/04/06 01:26:42;;;;;;;24.13;20.87;;;0.30;99.90;;;;;;2611076;39;20581;-75
2023/04/06 01:32:30;;;;;;;25.43;20.00;;;0.30;99.90;;;;;;2609507;46;20439;-74
2023/04/06 01:41:59;;;;;;;26.37;19.90;;;0.50;99.90;;;;;;2608809;54;20410;-74
2023/04/06 01:47:46;;;;;;;24.43;18.90;;;0.50;99.90;;;;;;2609959;54;20281;-74
2023/04/06 01:53:34;;;;;;;22.20;20.10;;;0.30;99.90;;;;;;2608768;54;20135;-75
2023/04/06 01:59:21;;;;;;;23.23;20.90;;;0.40;99.90;;;;;;2609501;54;20374;-74
2023/04/06 02:05:08;;;;;;;25.47;19.13;;;0.30;99.90;;;;;;2609597;54;20126;-75
2023/04/06 02:10:55;;;;;;;23.53;19.27;;;0.30;99.90;;;;;;2610026;54;20351;-70
2023/04/06 02:16:43;;;;;;;22.50;20.17;;;0.30;99.90;;;;;;2609669;54;20146;-70
2023/04/06 02:22:31;;;;;;;23.10;20.70;;;0.20;99.90;;;;;;2609305;39;20631;-69
2023/04/06 02:28:18;;;;;;;25.57;22.70;;;0.10;99.90;;;;;;2610502;54;20123;-70
2023/04/06 02:34:25;;;;;;;22.23;18.57;;;0.00;99.90;;;;;;2608306;54;20138;-69
2023/04/06 02:40:13;;;;;;;23.17;20.87;;;0.20;99.90;;;;;;2609410;39;20445;-70
2023/04/06 02:46:00;;;;;;;22.93;20.83;;;-0.10;99.90;;;;;;2608917;54;21055;-70
2023/04/06 02:51:48;;;;;;;21.90;19.67;;;0.00;99.90;;;;;;2608656;54;20173;-75
2023/04/06 02:57:35;;;;;;;22.90;19.80;;;0.00;99.90;;;;;;2609120;54;20130;-75
2023/04/06 03:03:23;;;;;;;21.30;19.03;;;-0.10;99.90;;;;;;2611267;54;20370;-75
2023/04/06 03:09:11;;;;;;;22.00;19.60;;;-0.10;99.90;;;;;;2608421;54;20134;-75
2023/04/06 03:14:58;;;;;;;23.23;20.73;;;-0.20;99.90;;;;;;2610425;54;21364;-75
2023/04/06 03:20:47;;;;;;;22.90;20.70;;;-0.10;99.90;;;;;;2609718;54;20635;-75
2023/04/06 03:26:35;;;;;;;24.97;22.37;;;-0.20;99.90;;;;;;2607300;54;20409;-76
2023/04/06 03:35:57;;;;;;;21.80;19.53;;;-0.30;99.90;;;;;;2609731;54;20399;-76
2023/04/06 03:41:44;;;;;;;20.50;18.50;;;-0.30;99.90;;;;;;2609564;54;20382;-74
2023/04/06 03:47:32;;;;;;;25.47;19.10;;;-0.30;99.90;;;;;;2610350;54;20363;-75
2023/04/06 03:53:20;;;;;;;22.13;19.77;;;0.00;99.90;;;;;;2612312;54;20133;-75
2023/04/06 03:59:08;;;;;;;23.37;19.87;;;-0.30;99.90;;;;;;2609656;54;21828;-75
2023/04/06 04:04:55;;;;;;;22.67;20.40;;;-0.20;99.90;;;;;;2608828;54;20155;-75
2023/04/06 04:10:43;;;;;;;22.60;20.30;;;-0.10;99.90;;;;;;2610422;54;20665;-75
2023/04/06 04:16:31;;;;;;;21.80;19.33;;;-0.50;99.90;;;;;;2609865;39;20570;-75
2023/04/06 04:22:19;;;;;;;25.17;20.30;;;-0.60;99.90;;;;;;2609205;39;20327;-74
2023/04/06 04:25:22;;;;;;;23.60;21.07;;;-0.70;99.90;;;;;;2612182;54;20415;-75
2023/04/06 04:27:48;;;;;;;22.90;20.60;;;-0.50;99.90;;;;;;2610106;54;20182;-75
2023/04/06 04:33:35;;;;;;;22.00;19.80;;;-0.60;99.90;;;;;;2611773;54;20744;-74
2023/04/06 04:39:23;;;;;;;24.10;21.80;;;-0.70;99.90;;;;;;2611895;39;21536;-75
2023/04/06 04:45:11;;;;;;;28.20;22.73;;;-0.80;99.90;;;;;;2612013;54;20656;-75
2023/04/06 04:50:59;;;;;;;33.10;22.33;;;-0.70;99.90;;;;;;2609945;54;20543;-75
2023/04/06 04:56:46;;;;;;;35.53;25.03;;;-0.70;99.90;;;;;;2614015;39;20554;-74
2023/04/06 05:02:34;;;;;;;30.30;23.70;;;-0.60;99.90;;;;;;2614382;54;20130;-74
2023/04/06 05:08:22;;;;;;;35.70;24.23;;;-0.50;99.90;;;;;;2610972;54;20127;-76
2023/04/06 05:14:10;;;;;;;35.60;26.33;;;-0.40;99.90;;;;;;2610656;54;20166;-76
2023/04/06 05:19:58;;;;;;;30.70;22.20;;;-0.30;99.90;;;;;;2609327;54;20395;-72
2023/04/06 05:25:46;;;;;;;28.50;22.40;;;0.00;99.90;;;;;;2614308;54;20122;-72
2023/04/06 05:38:18;;;;;;;24.63;20.77;;;1.30;99.90;;;;;;2610388;39;20745;-72
2023/04/06 05:44:06;;;;;;;31.33;22.13;;;2.10;99.90;;;;;;2610904;54;20143;-74
2023/04/06 05:49:53;;;;;;;23.47;21.07;;;3.00;99.90;;;;;;2606636;54;20274;-73
2023/04/06 05:55:41;;;;;;;23.27;21.37;;;4.10;90.70;;;;;;2610821;54;20134;-74
2023/04/06 06:01:29;;;;;;;21.27;19.03;;;4.80;59.20;;;;;;2604491;39;20743;-74
2023/04/06 06:07:17;;;;;;;24.63;21.17;;;5.00;42.50;;;;;;2608963;54;20383;-73
2023/04/06 06:13:05;;;;;;;21.23;19.53;;;5.30;31.70;;;;;;2607211;54;20409;-74
2023/04/06 06:18:53;;;;;;;23.87;21.90;;;5.70;27.50;;;;;;2609023;54;20126;-74
2023/04/06 06:24:40;;;;;;;20.43;18.93;;;6.00;23.60;;;;;;2610121;54;20226;-73
2023/04/06 06:30:28;;;;;;;21.90;20.30;;;6.20;20.10;;;;;;2609436;54;20157;-73
2023/04/06 06:39:47;;;;;;;24.37;22.57;;;6.50;16.10;;;;;;2609377;54;20386;-72
2023/04/06 06:45:35;;;;;;;22.40;20.90;;;7.20;14.30;;;;;;2610673;31;20790;-73
2023/04/06 06:51:23;;;;;;;22.63;21.03;;;7.10;13.30;;;;;;2608874;54;20389;-73
2023/04/06 06:57:10;;;;;;;24.10;22.10;;;7.00;10.60;;;;;;2609760;46;20617;-73
2023/04/06 07:02:58;;;;;;;23.50;21.80;;;7.30;9.60;;;;;;2608645;54;20134;-73
2023/04/06 07:08:46;;;;;;;23.13;21.53;;;7.60;8.00;;;;;;2613118;54;20139;-73
2023/04/06 07:14:34;;;;;;;23.87;22.03;;;7.90;4.90;;;;;;2611217;54;20154;-73
2023/04/06 07:20:21;;;;;;;22.93;21.30;;;8.60;1.00;;;;;;2613913;54;20681;-73
2023/04/06 07:26:10;;;;;;;22.90;20.93;;;8.60;1.00;;;;;;2614186;54;20126;-72
2023/04/06 07:31:57;;;;;;;22.03;20.53;;;8.70;1.00;;;;;;2611733;54;20165;-73
2023/04/06 07:35:13;;;;;;;24.23;22.43;;;8.60;1.00;;;;;;2612870;47;20412;-73
2023/04/06 07:37:39;;;;;;;22.77;21.27;;;9.00;1.00;;;;;;2614348;54;20712;-72
2023/04/06 07:43:27;;;;;;;24.60;22.80;;;9.30;1.00;;;;;;2614004;54;20350;-73
2023/04/06 07:49:15;;;;;;;22.37;21.00;;;9.30;1.00;;;;;;2613892;54;20135;-72
2023/04/06 07:55:03;;;;;;;25.27;23.20;;;9.20;1.00;;;;;;2613163;54;20131;-73
2023/04/06 08:00:50;;;;;;;22.47;20.43;;;10.20;1.00;;;;;;2611711;54;20175;-72
2023/04/06 08:06:38;;;;;;;23.17;21.43;;;10.30;1.00;;;;;;2612621;54;20159;-73
2023/04/06 08:12:26;;;;;;;25.37;23.20;;;11.60;1.00;;;;;;2610884;54;20135;-72
2023/04/06 08:18:13;;;;;;;23.90;22.07;;;11.00;1.00;;;;;;2612258;54;20258;-72
2023/04/06 08:24:02;;;;;;;23.73;22.03;;;10.80;1.00;;;;;;2613446;54;20122;-72
2023/04/06 08:30:01;;;;;;;23.83;22.03;;;12.40;1.00;;;;;;2612631;54;20922;-73
2023/04/06 08:39:46;;;;;;;24.00;22.27;;;11.40;1.00;;;;;;2611611;54;20395;-72
2023/04/06 08:45:34;;;;;;;25.70;23.40;;;12.40;1.00;;;;;;2612613;54;20427;-71
2023/04/06 08:51:26;;;;;;;26.67;24.67;;;12.40;1.00;;;;;;2612338;54;20930;-72
2023/04/06 08:57:13;;;;;;;24.20;22.47;;;12.10;1.00;;;;;;2612715;54;20398;-72
2023/04/06 09:03:01;;;;;;;25.60;23.30;;;12.80;1.00;;;;;;2612068;39;20841;-72
2023/04/06 09:05:59;;;;;;;25.33;23.43;;;12.60;1.00;;;;;;2610785;54;20404;-72
2023/04/06 09:08:25;;;;;;;26.23;24.10;;;12.60;1.00;;;;;;2612920;39;20902;-73
2023/04/06 09:14:13;;;;;;;26.50;24.30;;;12.80;1.00;;;;;;2613605;54;20184;-73
2023/04/06 09:20:02;;;;;;;27.50;25.10;;;12.80;1.00;;;;;;2610090;54;20138;-72
2023/04/06 09:25:50;;;;;;;26.87;24.57;;;12.90;1.00;;;;;;2613522;46;20479;-71
2023/04/06 09:31:38;;;;;;;26.53;24.50;;;13.80;1.00;;;;;;2611438;54;20162;-73
2023/04/06 09:37:28;;;;;;;28.17;25.40;;;13.90;1.00;;;;;;2611946;54;20732;-72
2023/04/06 09:40:31;;;;;;;28.07;25.77;;;13.40;1.00;;;;;;2612782;54;20502;-73
2023/04/06 09:42:59;;;;;;;27.33;25.00;;;14.20;1.00;;;;;;2612617;54;21135;-72
2023/04/06 09:48:47;;;;;;;27.50;25.40;;;15.20;1.00;;;;;;2614204;54;20362;-72
2023/04/06 09:54:36;;;;;;;28.30;25.77;;;15.60;1.00;;;;;;2610898;54;22948;-73
2023/04/06 10:00:26;;;;;;;27.37;24.87;;;15.80;1.00;;;;;;2612993;54;20416;-72
2023/04/06 10:06:17;;;;;;;28.43;25.87;;;15.30;1.00;;;;;;2612982;54;20395;-72
2023/04/06 10:12:06;;;;;;;29.53;26.93;;;15.80;1.00;;;;;;2612239;54;21543;-72
2023/04/06 10:17:54;;;;;;;26.57;24.27;;;16.20;1.00;;;;;;2613718;54;20399;-72
2023/04/06 10:30:06;;;;;;;28.03;25.70;;;15.80;1.00;;;;;;2612621;54;20427;-72
2023/04/06 10:49:35;;;;;;;29.40;26.80;;;15.80;1.00;;;;;;2611249;54;20395;-73
2023/04/06 10:55:22;;;;;;;30.93;28.20;;;16.50;1.00;;;;;;2611154;54;20133;-72
2023/04/06 11:01:11;;;;;;;29.47;27.00;;;16.60;1.00;;;;;;2609373;54;20125;-73
2023/04/06 11:06:58;;;;;;;31.83;29.03;;;16.20;1.00;;;;;;2610974;54;20391;-72
2023/04/06 11:12:51;;;;;;;33.17;30.37;;;15.70;1.00;;;;;;2611367;54;20243;-72
2023/04/06 11:25:13;;;;;;;32.23;29.53;;;17.00;1.00;;;;;;2613070;47;20122;-72
2023/04/06 11:31:01;;;;;;;32.87;30.07;;;15.80;1.00;;;;;;2613365;54;20427;-72
2023/04/06 11:40:14;;;;;;;32.07;29.07;;;16.20;1.00;;;;;;2613285;54;20463;-71
2023/04/06 11:46:03;;;;;;;30.60;27.47;;;16.10;1.00;;;;;;2612922;54;20366;-72
2023/04/06 11:51:51;;;;;;;28.63;25.70;;;16.50;1.00;;;;;;2613616;54;20403;-72
2023/04/06 11:55:09;;;;;;;27.47;24.87;;;15.70;1.00;;;;;;2613475;54;20423;-72
2023/04/06 11:57:35;;;;;;;27.90;25.33;;;15.60;1.00;;;;;;2611656;39;20248;-72
2023/04/06 12:03:23;;;;;;;31.00;28.10;;;16.30;1.00;;;;;;2609847;54;20636;-72
2023/04/06 12:09:11;;;;;;;30.33;27.20;;;16.00;1.00;;;;;;2612283;54;20177;-73
2023/04/06 12:14:59;;;;;;;33.30;30.10;;;15.90;1.00;;;;;;2612893;54;20130;-73
2023/04/06 12:20:47;;;;;;;28.37;25.63;;;15.90;1.00;;;;;;2612781;54;20398;-73
2023/04/06 12:26:35;;;;;;;26.63;24.23;;;15.60;1.00;;;;;;2612815;54;20177;-73
2023/04/06 12:32:23;;;;;;;25.00;22.90;;;14.90;1.00;;;;;;2612760;54;20929;-73
2023/04/06 12:35:46;;;;;;;28.13;25.80;;;15.00;1.00;;;;;;2613483;54;20447;-73
2023/04/06 12:38:11;;;;;;;27.70;25.23;;;14.70;1.00;;;;;;2613307;54;20154;-73
2023/04/06 12:44:02;;;;;;;27.20;24.67;;;15.20;1.00;;;;;;2612630;54;20198;-72
2023/04/06 12:49:50;;;;;;;28.20;25.60;;;14.10;1.00;;;;;;2612060;54;20383;-72
2023/04/06 12:55:37;;;;;;;25.37;22.97;;;14.30;1.00;;;;;;2612655;39;20830;-73
2023/04/06 13:01:27;;;;;;;32.00;27.13;;;14.40;1.00;;;;;;2612840;54;20122;-73
2023/04/06 13:07:15;;;;;;;26.57;24.23;;;14.40;1.00;;;;;;2613622;54;20403;-74
2023/04/06 13:13:03;;;;;;;27.70;25.10;;;13.90;1.00;;;;;;2613072;54;20123;-73
2023/04/06 13:18:51;;;;;;;27.50;25.10;;;13.60;1.00;;;;;;2612824;54;20447;-72
2023/04/06 13:24:38;;;;;;;26.97;24.40;;;13.50;1.00;;;;;;2611601;46;20603;-73
2023/04/06 13:30:26;;;;;;;24.80;22.70;;;13.50;1.00;;;;;;2612318;54;20158;-73
2023/04/06 13:40:20;;;;;;;26.47;23.40;;;13.40;1.00;;;;;;2611984;54;20399;-73
2023/04/06 13:46:08;;;;;;;28.07;25.67;;;13.60;1.00;;;;;;2612778;46;20414;-73
2023/04/06 13:51:56;;;;;;;28.50;25.83;;;13.20;1.00;;;;;;2612831;54;20386;-74
2023/04/06 13:57:44;;;;;;;26.00;23.83;;;13.40;1.00;;;;;;2612697;39;20621;-73
2023/04/06 14:03:32;;;;;;;22.57;20.77;;;13.70;1.00;;;;;;2611385;54;20138;-73
2023/04/06 14:09:20;;;;;;;22.57;20.77;;;13.20;1.00;;;;;;2613113;54;20174;-72
2023/04/06 14:15:10;;;;;;;23.83;21.57;;;12.70;1.00;;;;;;2611225;54;20423;-73
2023/04/06 14:20:58;;;;;;;27.50;24.73;;;12.50;1.00;;;;;;2613880;54;21246;-72
2023/04/06 14:26:46;;;;;;;26.33;24.03;;;12.30;1.00;;;;;;2613639;54;20507;-72
2023/04/06 14:32:34;;;;;;;25.27;23.07;;;11.90;1.00;;;;;;2610300;54;20143;-73
2023/04/06 14:35:46;;;;;;;25.03;22.73;;;12.00;1.50;;;;;;2614142;54;20419;-73
2023/04/06 14:38:12;;;;;;;22.90;20.87;;;11.90;3.30;;;;;;2614121;54;20154;-73
2023/04/06 14:44:01;;;;;;;24.03;22.03;;;12.00;1.40;;;;;;2613726;54;20681;-73
2023/04/06 14:49:53;;;;;;;25.50;23.10;;;12.20;1.00;;;;;;2613933;54;20358;-73
2023/04/06 14:55:43;;;;;;;23.40;21.60;;;12.40;1.00;;;;;;2608524;54;20391;-73
2023/04/06 15:01:35;;;;;;;24.27;22.23;;;11.70;5.70;;;;;;2612311;54;21009;-73
2023/04/06 15:07:22;;;;;;;22.50;20.60;;;11.80;9.50;;;;;;2612344;54;20395;-72
2023/04/06 15:13:10;;;;;;;23.43;21.50;;;11.70;12.60;;;;;;2610479;54;20150;-73
2023/04/06 15:19:00;;;;;;;23.80;22.10;;;11.80;13.90;;;;;;2609179;54;20122;-75
2023/04/06 15:24:47;;;;;;;21.80;20.30;;;11.70;17.50;;;;;;2609437;54;20412;-72
2023/04/06 15:30:36;;;;;;;24.27;22.27;;;11.70;21.40;;;;;;2609472;54;20171;-72
2023/04/06 15:40:17;;;;;;;23.70;21.83;;;11.50;15.40;;;;;;2613307;54;20399;-72
2023/04/06 15:46:04;;;;;;;23.40;21.57;;;11.50;11.30;;;;;;2607903;54;20387;-73
2023/04/06 15:51:52;;;;;;;24.20;22.17;;;11.30;11.60;;;;;;2611450;54;20431;-73
2023/04/06 15:57:40;;;;;;;21.40;19.73;;;11.30;17.60;;;;;;2612525;54;20149;-74
2023/04/06 16:03:28;;;;;;;19.33;17.83;;;11.10;22.10;;;;;;2612737;54;20150;-73
2023/04/06 16:09:16;;;;;;;21.80;19.63;;;10.80;31.40;;;;;;2613453;54;20170;-74
2023/04/06 16:15:04;;;;;;;16.97;15.57;;;10.40;55.10;;;;;;2614013;54;20130;-73
2023/04/06 16:20:52;;;;;;;20.13;15.77;;;10.00;91.70;;;;;;2613435;54;20444;-74
2023/04/06 16:26:40;;;;;;;15.07;13.70;;;9.80;99.90;;;;;;2612120;54;20395;-74
2023/04/06 16:32:28;;;;;;;13.83;12.30;;;9.60;99.90;;;;;;2613928;54;20439;-73
2023/04/06 16:35:47;;;;;;;10.33;9.43;;;9.50;99.90;;;;;;2614891;54;20411;-73
2023/04/06 16:38:14;;;;;;;12.80;11.50;;;9.40;99.90;;;;;;2610549;39;20636;-74
2023/04/06 16:44:02;;;;;;;13.63;11.50;;;9.20;99.90;;;;;;2613096;54;20906;-74
2023/04/06 16:49:51;;;;;;;15.73;13.30;;;9.10;99.90;;;;;;2612297;54;20388;-72
2023/04/06 16:55:39;;;;;;;10.20;9.30;;;8.90;99.90;;;;;;2613661;54;20416;-73
2023/04/06 17:01:28;;;;;;;9.80;8.80;;;8.60;99.90;;;;;;2613244;54;20689;-73
2023/04/06 17:07:16;;;;;;;8.97;8.17;;;8.50;99.90;;;;;;2612699;39;20918;-73
2023/04/06 17:13:05;;;;;;;10.03;9.23;;;8.30;99.90;;;;;;2613026;54;20134;-72
2023/04/06 17:18:52;;;;;;;10.13;9.13;;;8.20;99.90;;;;;;2613577;54;20423;-73
2023/04/06 17:24:40;;;;;;;11.83;8.80;;;8.20;99.90;;;;;;2613287;54;20669;-72
2023/04/06 17:30:28;;;;;;;8.83;7.93;;;8.10;99.90;;;;;;2613131;54;20243;-72
2023/04/06 17:40:18;;;;;;;10.97;8.03;;;8.00;99.90;;;;;;2614051;54;20355;-73
2023/04/06 17:46:06;;;;;;;8.53;7.50;;;8.00;99.90;;;;;;2614277;54;20410;-73
2023/04/06 17:51:54;;;;;;;9.33;8.10;;;8.00;99.90;;;;;;2612184;54;20459;-73
2023/04/06 17:57:42;;;;;;;9.40;7.50;;;8.00;99.90;;;;;;2614508;46;20418;-73
2023/04/06 18:03:30;;;;;;;8.00;7.20;;;8.00;99.90;;;;;;2613188;54;20399;-72
2023/04/06 18:09:18;;;;;;;9.50;8.07;;;7.90;99.90;;;;;;2613940;54;20166;-72
2023/04/06 18:15:06;;;;;;;10.90;8.30;;;7.80;99.90;;;;;;2613515;54;20121;-73
2023/04/06 18:20:54;;;;;;;8.27;6.93;;;7.80;99.90;;;;;;2613153;54;20375;-72
2023/04/06 18:26:43;;;;;;;8.70;7.83;;;7.70;99.90;;;;;;2613634;39;20874;-74
2023/04/06 18:32:30;;;;;;;10.90;7.43;;;7.70;99.90;;;;;;2613223;54;20139;-72
2023/04/06 18:42:45;;;;;;;11.97;7.70;;;7.70;99.90;;;;;;2611948;54;20426;-70
2023/04/06 18:48:33;;;;;;;10.87;9.73;;;7.70;99.90;;;;;;2613817;54;20519;-70
2023/04/06 18:54:20;;;;;;;10.80;8.83;;;7.70;99.90;;;;;;2611487;54;20204;-71
2023/04/06 19:00:08;;;;;;;10.63;9.10;;;7.70;99.90;;;;;;2613071;54;20150;-70
2023/04/06 19:05:56;;;;;;;11.13;8.80;;;7.80;99.90;;;;;;2613570;54;20388;-70
2023/04/06 19:11:43;;;;;;;11.23;7.90;;;7.70;99.90;;;;;;2611897;31;20610;-70
2023/04/06 19:17:31;;;;;;;10.93;8.70;;;7.60;99.90;;;;;;2611338;54;20242;-70
2023/04/06 19:23:19;;;;;;;16.03;11.10;;;7.50;99.90;;;;;;2611454;54;20387;-70
2023/04/06 19:29:07;;;;;;;14.67;10.80;;;7.40;99.90;;;;;;2611283;39;20550;-71
2023/04/06 19:34:55;;;;;;;12.97;11.60;;;7.30;99.90;;;;;;2612343;54;20378;-70
2023/04/06 19:40:43;;;;;;;14.83;11.00;;;7.30;99.90;;;;;;2611875;54;20201;-71
2023/04/06 19:44:04;;;;;;;11.50;9.57;;;7.30;99.90;;;;;;2612876;47;20416;-70
2023/04/06 19:49:52;;;;;;;16.03;10.90;;;7.30;99.90;;;;;;2612965;54;20366;-70
2023/04/06 19:55:40;;;;;;;12.30;11.00;;;7.20;99.90;;;;;;2612986;54;20755;-71
2023/04/06 20:01:27;;;;;;;13.07;11.23;;;7.20;99.90;;;;;;2608524;54;20122;-70
2023/04/06 20:07:15;;;;;;;12.80;10.87;;;7.10;99.90;;;;;;2609530;54;20251;-70
2023/04/06 20:13:03;;;;;;;12.20;8.93;;;7.20;99.90;;;;;;2612958;54;20577;-70
2023/04/06 20:18:51;;;;;;;12.67;11.37;;;7.10;99.90;;;;;;2611589;54;20126;-71
2023/04/06 20:24:39;;;;;;;13.60;10.40;;;7.10;99.90;;;;;;2612943;54;20122;-70
2023/04/06 20:30:27;;;;;;;14.20;9.80;;;7.10;99.90;;;;;;2613272;54;20145;-71
2023/04/06 20:36:14;;;;;;;9.80;8.80;;;7.10;99.90;;;;;;2614435;54;20118;-70
2023/04/06 20:39:34;;;;;;;10.20;8.73;;;7.10;99.90;;;;;;2613321;54;21009;-70
2023/04/06 20:42:00;;;;;;;13.17;8.77;;;7.10;99.90;;;;;;2613026;47;20178;-71
2023/04/06 20:47:52;;;;;;;10.70;9.60;;;7.20;99.90;;;;;;2613712;54;20123;-71
2023/04/06 20:53:40;;;;;;;10.20;8.57;;;7.10;99.90;;;;;;2614327;39;20758;-70
2023/04/06 20:59:27;;;;;;;11.00;9.07;;;7.20;99.90;;;;;;2613705;54;20118;-70
2023/04/06 21:05:15;;;;;;;9.93;8.93;;;7.20;99.90;;;;;;2613777;54;20389;-70
2023/04/06 21:11:03;;;;;;;8.40;7.43;;;7.20;99.90;;;;;;2612402;46;20149;-70
2023/04/06 21:14:06;;;;;;;10.07;9.07;;;7.30;99.90;;;;;;2614034;54;20400;-70
2023/04/06 21:16:32;;;;;;;11.13;8.47;;;7.20;99.90;;;;;;2612873;54;20913;-70
2023/04/06 21:22:20;;;;;;;9.53;7.93;;;7.30;99.90;;;;;;2612814;46;20234;-71
2023/04/06 21:28:08;;;;;;;9.77;8.77;;;7.30;99.90;;;;;;2614670;54;20150;-71
2023/04/06 21:33:55;;;;;;;8.93;8.03;;;7.30;99.90;;;;;;2614479;54;20664;-71
2023/04/06 21:49:49;;;;;;;9.80;8.73;;;7.30;99.90;;;;;;2610987;54;20399;-70
2023/04/06 21:55:46;;;;;;;11.80;9.97;;;7.40;99.90;;;;;;2610343;54;21012;-70
2023/04/06 22:01:34;;;;;;;13.27;10.70;;;7.40;99.90;;;;;;2612511;54;20386;-69
2023/04/06 22:07:21;;;;;;;11.27;10.00;;;7.40;99.90;;;;;;2613165;46;20945;-69
2023/04/06 22:13:11;;;;;;;15.50;11.73;;;7.40;99.90;;;;;;2611665;54;20134;-69
2023/04/06 22:18:58;;;;;;;17.77;13.00;;;7.50;99.90;;;;;;2611814;54;20371;-70
2023/04/06 22:24:46;;;;;;;13.47;12.07;;;7.50;99.90;;;;;;2613919;54;20222;-71
2023/04/06 22:30:33;;;;;;;14.60;12.90;;;7.50;99.90;;;;;;2612897;54;20166;-69
2023/04/06 22:36:22;;;;;;;13.87;12.40;;;7.50;99.90;;;;;;2613884;54;20142;-71
2023/04/06 22:39:34;;;;;;;12.67;10.47;;;7.60;99.90;;;;;;2612776;54;20419;-70
2023/04/06 22:41:59;;;;;;;15.97;12.40;;;7.50;99.90;;;;;;2612132;47;20439;-70
2023/04/06 22:47:47;;;;;;;18.47;13.40;;;7.50;99.90;;;;;;2612931;54;22023;-70
2023/04/06 22:53:35;;;;;;;20.80;14.63;;;7.50;99.90;;;;;;2613218;54;20143;-70
2023/04/06 22:59:22;;;;;;;16.60;14.90;;;7.50;99.90;;;;;;2612360;54;20154;-70
2023/04/06 23:05:10;;;;;;;18.80;15.50;;;7.50;99.90;;;;;;2612739;54;20127;-70
2023/04/06 23:10:58;;;;;;;19.40;14.40;;;7.50;99.90;;;;;;2613539;54;20158;-70
2023/04/06 23:16:45;;;;;;;19.23;14.77;;;7.50;99.90;;;;;;2611341;54;20222;-71
2023/04/06 23:22:33;;;;;;;20.23;17.10;;;7.50;99.90;;;;;;2612265;54;20196;-71
2023/04/06 23:28:21;;;;;;;18.10;14.90;;;7.50;99.90;;;;;;2613443;54;20133;-70
2023/04/06 23:34:09;;;;;;;19.30;16.57;;;7.50;99.90;;;;;;2613253;54;20134;-71
2023/04/06 23:44:06;;;;;;;17.83;15.97;;;7.50;99.90;;;;;;2613180;54;20359;-70
2023/04/06 23:49:55;;;;;;;18.97;16.23;;;7.50;99.90;;;;;;2613000;54;20442;-71
2023/04/06 23:55:43;;;;;;;16.57;14.83;;;7.50;99.90;;;;;;2613545;54;20584;-70
